Meadows, New Hampshire
Current Conditions -  °F | °C
As of 4:52 PM on Sunday 23 Nov 2014 (Local Time) from KHIE Reporting Station
Overcast Overcast  
Wind Chill: 37°   Ceiling: 4000
Heat Index: 37°   Visibility: 10mi
Dew Point: 34°   Wind: 0mph
Humidity: 89%   Direction: NA
Pressure: 30.07"   Gusts: NA
Location:  44.36°N, 71.46°W
Report Text: KHIE 232152Z AUTO 00000KT 10SM OVC040 03/01 A3007 RMK AO2 SLP193 T00280011
Loading
Personal Weather Stations






























Interactive Weather Map New forecast layout! Learn more

10-Day Weather Forecast

Advertisements
Track Severe Weather on mobile